Time;durP1;ratioP1;P1;durP2;ratioP2;P2;SDS_P1;SDS_P2;PMS_P1;PMS_P2;Temp;Humidity;BMP_temperature;BMP_pressure;BME280_temperature;BME280_humidity;BME280_pressure;Samples;Min_cycle;Max_cycle;Signal;HPM_P1;HPM_P2
2021/11/24 00:00:07;;;;;;;;;;;15.80;99.90;;;;;;5058290;28;931;-53
2021/11/24 00:02:33;;;;;;;;;;;15.80;99.90;;;;;;5057609;28;946;-53
2021/11/24 00:05:00;;;;;;;;;;;15.70;99.90;;;;;;5058536;28;914;-53
2021/11/24 00:07:27;;;;;;;;;;;15.70;99.90;;;;;;5057022;28;869;-53
2021/11/24 00:09:55;;;;;;;;;;;15.70;99.90;;;;;;5057217;28;1059;-53
2021/11/24 00:12:22;;;;;;;;;;;15.60;99.90;;;;;;5058172;28;828;-53
2021/11/24 00:14:48;;;;;;;;;;;15.60;99.90;;;;;;5074818;28;1902;-52
2021/11/24 00:17:16;;;;;;;;;;;15.60;99.90;;;;;;5061744;28;811;-52
2021/11/24 00:19:43;;;;;;;;;;;15.60;99.90;;;;;;5023692;28;921;-52
2021/11/24 00:22:09;;;;;;;;;;;15.60;99.90;;;;;;5040076;28;890;-52
2021/11/24 00:24:35;;;;;;;;;;;15.50;99.90;;;;;;5040076;28;918;-53
2021/11/24 00:27:00;;;;;;;;;;;15.60;99.90;;;;;;5057036;28;876;-52
2021/11/24 00:29:28;;;;;;;;;;;15.50;99.90;;;;;;5058077;28;906;-52
2021/11/24 00:31:56;;;;;;;;;;;15.50;99.90;;;;;;5061432;28;1254;-53
2021/11/24 00:34:23;;;;;;;;;;;15.50;99.90;;;;;;5071426;28;1606;-52
2021/11/24 00:36:49;;;;;;;;;;;15.40;99.90;;;;;;5075883;28;2107;-54
2021/11/24 00:39:16;;;;;;;;;;;15.40;99.90;;;;;;5075468;28;911;-52
2021/11/24 00:41:42;;;;;;;;;;;15.40;99.90;;;;;;5075484;28;885;-52
2021/11/24 00:44:09;;;;;;;;;;;15.40;99.90;;;;;;5071448;28;1735;-52
2021/11/24 00:46:35;;;;;;;;;;;15.30;99.90;;;;;;5066286;28;750;-52
2021/11/24 00:49:03;;;;;;;;;;;15.30;99.90;;;;;;5057641;28;830;-53
2021/11/24 00:51:29;;;;;;;;;;;15.30;99.90;;;;;;5057567;28;813;-53
2021/11/24 00:53:55;;;;;;;;;;;15.20;99.90;;;;;;5057390;28;774;-53
2021/11/24 00:56:21;;;;;;;;;;;15.10;99.90;;;;;;5057482;28;1976;-53
2021/11/24 00:58:47;;;;;;;;;;;15.10;99.90;;;;;;5057334;28;1105;-53
2021/11/24 01:01:12;;;;;;;;;;;15.10;99.90;;;;;;5057946;28;1036;-54
2021/11/24 01:03:40;;;;;;;;;;;15.20;99.90;;;;;;5057388;28;1382;-54
2021/11/24 01:06:07;;;;;;;;;;;15.10;99.90;;;;;;5061632;28;814;-53
2021/11/24 01:08:35;;;;;;;;;;;15.20;99.90;;;;;;5075396;28;823;-52
2021/11/24 01:11:01;;;;;;;;;;;15.20;99.90;;;;;;5055214;28;933;-53
2021/11/24 01:13:27;;;;;;;;;;;15.10;99.90;;;;;;5047532;28;1406;-53
2021/11/24 01:15:54;;;;;;;;;;;15.10;99.90;;;;;;5073803;28;1976;-53
2021/11/24 01:18:21;;;;;;;;;;;15.10;99.90;;;;;;5059946;28;919;-53
2021/11/24 01:20:47;;;;;;;;;;;15.10;99.90;;;;;;5059486;28;893;-53
2021/11/24 01:23:14;;;;;;;;;;;15.10;99.90;;;;;;5058825;28;908;-53
2021/11/24 01:25:41;;;;;;;;;;;15.10;99.90;;;;;;5057530;28;773;-53
2021/11/24 01:28:09;;;;;;;;;;;15.10;99.90;;;;;;5056820;28;770;-54
2021/11/24 01:30:36;;;;;;;;;;;15.00;99.90;;;;;;5056799;28;817;-52
2021/11/24 01:33:02;;;;;;;;;;;15.00;99.90;;;;;;5055904;28;1436;-52
2021/11/24 01:35:28;;;;;;;;;;;15.00;99.90;;;;;;5059461;28;1914;-53
2021/11/24 01:37:54;;;;;;;;;;;15.00;99.90;;;;;;5056128;28;1284;-54
2021/11/24 01:40:20;;;;;;;;;;;15.00;99.90;;;;;;5055915;28;853;-52
2021/11/24 01:42:46;;;;;;;;;;;14.90;99.90;;;;;;5038878;28;905;-53
2021/11/24 01:45:17;;;;;;;;;;;14.90;99.90;;;;;;5055667;28;1325;-52
2021/11/24 01:47:45;;;;;;;;;;;14.80;99.90;;;;;;5056666;28;776;-52
2021/11/24 01:50:13;;;;;;;;;;;14.80;99.90;;;;;;5056560;28;753;-52
2021/11/24 01:52:40;;;;;;;;;;;14.80;99.90;;;;;;5056507;28;974;-52
2021/11/24 01:55:08;;;;;;;;;;;14.80;99.90;;;;;;5038666;28;1914;-52
2021/11/24 01:57:35;;;;;;;;;;;14.80;99.90;;;;;;5014946;28;889;-52
2021/11/24 02:00:01;;;;;;;;;;;14.80;99.90;;;;;;4998759;28;857;-52
2021/11/24 02:02:27;;;;;;;;;;;14.80;99.90;;;;;;5014982;28;826;-52
2021/11/24 02:04:54;;;;;;;;;;;14.80;99.90;;;;;;5014314;28;839;-52
2021/11/24 02:07:20;;;;;;;;;;;14.80;99.90;;;;;;5023247;28;834;-52
2021/11/24 02:09:46;;;;;;;;;;;14.70;99.90;;;;;;5032660;28;1041;-52
2021/11/24 02:12:14;;;;;;;;;;;14.80;99.90;;;;;;5032683;28;1211;-52
2021/11/24 02:14:41;;;;;;;;;;;14.70;99.90;;;;;;5028945;28;988;-52
2021/11/24 02:17:09;;;;;;;;;;;14.70;99.90;;;;;;5019146;28;1898;-52
2021/11/24 02:19:35;;;;;;;;;;;14.60;99.90;;;;;;5014363;28;896;-52
2021/11/24 02:22:03;;;;;;;;;;;14.60;99.90;;;;;;5014788;28;956;-52
2021/11/24 02:24:31;;;;;;;;;;;14.50;99.90;;;;;;4982884;28;924;-52
2021/11/24 02:26:57;;;;;;;;;;;14.50;99.90;;;;;;4993956;28;1030;-53
2021/11/24 02:29:23;;;;;;;;;;;14.60;99.90;;;;;;5026555;28;1429;-52
2021/11/24 02:31:50;;;;;;;;;;;14.60;99.90;;;;;;5034651;28;897;-53
2021/11/24 02:34:16;;;;;;;;;;;14.60;99.90;;;;;;5036816;28;1065;-53
2021/11/24 02:36:43;;;;;;;;;;;14.50;99.90;;;;;;5036207;28;1902;-52
2021/11/24 02:39:11;;;;;;;;;;;14.50;99.90;;;;;;5021036;28;1401;-52
2021/11/24 02:41:38;;;;;;;;;;;14.60;99.90;;;;;;5017713;28;970;-52
2021/11/24 02:44:26;;;;;;;;;;;14.50;99.90;;;;;;5024428;28;1308;-53
2021/11/24 02:46:53;;;;;;;;;;;14.50;99.90;;;;;;5037598;28;921;-53
2021/11/24 02:49:19;;;;;;;;;;;14.50;99.90;;;;;;5038053;28;1024;-53
2021/11/24 02:51:45;;;;;;;;;;;14.50;99.90;;;;;;5038060;28;866;-53
2021/11/24 02:54:14;;;;;;;;;;;14.50;99.90;;;;;;5037615;28;889;-53
2021/11/24 02:56:43;;;;;;;;;;;14.40;99.90;;;;;;5037240;28;1967;-53
2021/11/24 02:59:10;;;;;;;;;;;14.40;99.90;;;;;;5037894;28;857;-53
2021/11/24 03:01:38;;;;;;;;;;;14.40;99.90;;;;;;5045341;28;999;-53
2021/11/24 03:04:04;;;;;;;;;;;14.40;99.90;;;;;;5024824;28;1068;-52
2021/11/24 03:06:30;;;;;;;;;;;14.40;99.90;;;;;;5058701;28;890;-52
2021/11/24 03:08:56;;;;;;;;;;;14.40;99.90;;;;;;5058885;28;982;-53
2021/11/24 03:11:22;;;;;;;;;;;14.40;99.90;;;;;;5059295;28;829;-52
2021/11/24 03:13:49;;;;;;;;;;;14.40;99.90;;;;;;5068676;28;841;-53
2021/11/24 03:16:15;;;;;;;;;;;14.40;99.90;;;;;;5070221;28;1905;-52
2021/11/24 03:18:42;;;;;;;;;;;14.40;99.90;;;;;;5059385;28;935;-52
2021/11/24 03:21:08;;;;;;;;;;;14.40;99.90;;;;;;5059042;28;833;-53
2021/11/24 03:23:34;;;;;;;;;;;14.30;99.90;;;;;;5043792;28;1017;-52
2021/11/24 03:26:01;;;;;;;;;;;14.30;99.90;;;;;;5038776;28;878;-52
2021/11/24 03:28:27;;;;;;;;;;;14.30;99.90;;;;;;5033987;28;935;-52
2021/11/24 03:30:52;;;;;;;;;;;14.30;99.90;;;;;;5037361;28;943;-52
2021/11/24 03:33:19;;;;;;;;;;;14.30;99.90;;;;;;5037228;28;896;-53
2021/11/24 03:35:45;;;;;;;;;;;14.30;99.90;;;;;;5037177;28;1906;-52
2021/11/24 03:38:13;;;;;;;;;;;14.40;99.90;;;;;;5020408;28;956;-53
2021/11/24 03:40:39;;;;;;;;;;;14.30;99.90;;;;;;5036632;28;898;-53
2021/11/24 03:43:05;;;;;;;;;;;14.30;99.90;;;;;;5034789;28;885;-51
2021/11/24 03:45:33;;;;;;;;;;;14.30;99.90;;;;;;5036879;28;1045;-52
2021/11/24 03:48:01;;;;;;;;;;;14.30;99.90;;;;;;5051465;28;1019;-52
2021/11/24 03:50:30;;;;;;;;;;;14.20;99.90;;;;;;5055283;28;918;-52
2021/11/24 03:52:56;;;;;;;;;;;14.10;99.90;;;;;;5055195;28;827;-52
2021/11/24 03:55:22;;;;;;;;;;;14.10;99.90;;;;;;5054523;28;1976;-52
2021/11/24 03:57:50;;;;;;;;;;;14.20;99.90;;;;;;5054854;28;858;-52
2021/11/24 04:00:20;;;;;;;;;;;14.20;99.90;;;;;;5058942;28;926;-53
2021/11/24 04:02:48;;;;;;;;;;;14.20;99.90;;;;;;5059291;28;842;-53
2021/11/24 04:05:16;;;;;;;;;;;14.20;99.90;;;;;;5076660;28;876;-52
2021/11/24 04:07:43;;;;;;;;;;;14.20;99.90;;;;;;5058854;28;1314;-53
2021/11/24 04:10:10;;;;;;;;;;;14.20;99.90;;;;;;5076250;28;915;-52
2021/11/24 04:12:37;;;;;;;;;;;14.20;99.90;;;;;;5074081;28;826;-52
2021/11/24 04:15:04;;;;;;;;;;;14.20;99.90;;;;;;5074463;28;938;-52
2021/11/24 04:17:30;;;;;;;;;;;14.20;99.90;;;;;;5059484;28;1905;-52
2021/11/24 04:19:57;;;;;;;;;;;14.00;99.90;;;;;;5040398;28;829;-52
2021/11/24 04:22:23;;;;;;;;;;;14.00;99.90;;;;;;5057883;28;853;-52
2021/11/24 04:24:50;;;;;;;;;;;14.00;99.90;;;;;;5057522;28;891;-52
2021/11/24 04:27:16;;;;;;;;;;;14.00;99.90;;;;;;5057822;28;1004;-52
2021/11/24 04:29:42;;;;;;;;;;;14.00;99.90;;;;;;5057761;28;869;-52
2021/11/24 04:32:08;;;;;;;;;;;14.00;99.90;;;;;;5016349;28;1002;-52
2021/11/24 04:34:34;;;;;;;;;;;14.00;99.90;;;;;;5016355;28;833;-52
2021/11/24 04:37:00;;;;;;;;;;;14.00;99.90;;;;;;5014260;28;1910;-52
2021/11/24 04:39:26;;;;;;;;;;;14.00;99.90;;;;;;5029204;28;1104;-51
2021/11/24 04:41:53;;;;;;;;;;;14.00;99.90;;;;;;5034360;28;937;-52
2021/11/24 04:44:19;;;;;;;;;;;14.10;99.90;;;;;;5041403;28;1059;-51
2021/11/24 04:46:45;;;;;;;;;;;14.00;99.90;;;;;;5043500;28;828;-53
2021/11/24 04:49:12;;;;;;;;;;;14.00;99.90;;;;;;5035862;28;997;-52
2021/11/24 04:51:38;;;;;;;;;;;14.00;99.90;;;;;;5036084;28;976;-51
2021/11/24 04:54:04;;;;;;;;;;;14.00;99.90;;;;;;5035111;28;821;-53
2021/11/24 04:56:30;;;;;;;;;;;13.90;99.90;;;;;;5034577;28;1918;-52
2021/11/24 04:58:59;;;;;;;;;;;13.90;99.90;;;;;;5035573;28;985;-52
2021/11/24 05:01:25;;;;;;;;;;;13.80;99.90;;;;;;5034923;28;842;-52
2021/11/24 05:03:52;;;;;;;;;;;13.90;99.90;;;;;;5059290;28;834;-52
2021/11/24 05:06:21;;;;;;;;;;;13.90;99.90;;;;;;5075555;28;1097;-51
2021/11/24 05:08:48;;;;;;;;;;;13.90;99.90;;;;;;5051363;28;1307;-51
2021/11/24 05:11:16;;;;;;;;;;;13.90;99.90;;;;;;5012956;28;995;-52
2021/11/24 05:13:47;;;;;;;;;;;13.90;99.90;;;;;;5071401;28;837;-51
2021/11/24 05:16:13;;;;;;;;;;;13.90;99.90;;;;;;5050445;28;1918;-51
2021/11/24 05:18:44;;;;;;;;;;;13.90;99.90;;;;;;5075269;28;901;-52
2021/11/24 05:24:06;;;;;;;;;;;13.90;99.90;;;;;;5039707;28;1260;-51
2021/11/24 05:26:35;;;;;;;;;;;13.80;99.90;;;;;;5056408;28;918;-52
2021/11/24 05:29:01;;;;;;;;;;;13.80;99.90;;;;;;5056089;28;1035;-53
2021/11/24 05:31:27;;;;;;;;;;;13.70;99.90;;;;;;5056662;28;874;-52
2021/11/24 05:33:55;;;;;;;;;;;13.80;99.90;;;;;;5056948;28;1199;-53
2021/11/24 05:36:22;;;;;;;;;;;13.80;99.90;;;;;;5056672;28;1985;-52
2021/11/24 05:38:54;;;;;;;;;;;13.90;99.90;;;;;;5074055;28;810;-52
2021/11/24 05:41:22;;;;;;;;;;;13.90;99.90;;;;;;5075020;28;931;-52
2021/11/24 05:43:52;;;;;;;;;;;13.90;99.90;;;;;;5071771;28;1206;-52
2021/11/24 05:46:42;;;;;;;;;;;13.90;99.90;;;;;;5054451;28;924;-52
2021/11/24 05:49:08;;;;;;;;;;;13.90;99.90;;;;;;5052941;28;892;-53
2021/11/24 05:51:36;;;;;;;;;;;13.90;99.90;;;;;;5052312;28;908;-52
2021/11/24 05:54:02;;;;;;;;;;;13.80;99.90;;;;;;5074805;28;879;-53
2021/11/24 05:56:28;;;;;;;;;;;13.80;99.90;;;;;;5075031;28;1898;-52
2021/11/24 05:58:55;;;;;;;;;;;13.80;99.90;;;;;;5075192;28;965;-52
2021/11/24 06:01:22;;;;;;;;;;;13.80;99.90;;;;;;5075117;28;852;-52
2021/11/24 06:03:48;;;;;;;;;;;13.90;99.90;;;;;;5074805;28;821;-52
2021/11/24 06:06:14;;;;;;;;;;;14.00;99.90;;;;;;5073828;28;1106;-53
2021/11/24 06:08:40;;;;;;;;;;;14.00;99.90;;;;;;5077115;28;1131;-52
2021/11/24 06:11:06;;;;;;;;;;;14.10;99.90;;;;;;5077003;28;1018;-52
2021/11/24 06:13:32;;;;;;;;;;;14.20;99.90;;;;;;5075432;28;925;-52
2021/11/24 06:15:59;;;;;;;;;;;14.30;99.90;;;;;;5072199;28;1914;-52
2021/11/24 06:18:26;;;;;;;;;;;14.50;99.90;;;;;;5058659;28;1287;-52
2021/11/24 06:20:53;;;;;;;;;;;14.60;99.90;;;;;;5058733;28;845;-52
2021/11/24 06:23:19;;;;;;;;;;;14.70;99.90;;;;;;5071967;28;817;-52
2021/11/24 06:25:45;;;;;;;;;;;14.80;99.90;;;;;;5076536;28;845;-52
2021/11/24 06:28:12;;;;;;;;;;;14.90;99.90;;;;;;5076922;28;867;-52
2021/11/24 06:30:38;;;;;;;;;;;15.00;99.90;;;;;;5076739;28;827;-52
2021/11/24 06:33:04;;;;;;;;;;;15.00;99.90;;;;;;5067609;28;1311;-52
2021/11/24 06:35:30;;;;;;;;;;;15.10;99.90;;;;;;5058336;28;806;-52
2021/11/24 06:37:57;;;;;;;;;;;15.10;99.90;;;;;;5059661;28;1906;-52
2021/11/24 06:40:25;;;;;;;;;;;15.10;99.90;;;;;;5059622;28;805;-52
2021/11/24 06:42:51;;;;;;;;;;;15.10;99.90;;;;;;5061133;28;1023;-52
2021/11/24 06:45:17;;;;;;;;;;;15.10;99.90;;;;;;5077680;28;1046;-52
2021/11/24 06:47:43;;;;;;;;;;;15.10;99.90;;;;;;5059182;28;1171;-52
2021/11/24 06:50:11;;;;;;;;;;;15.10;99.90;;;;;;5059646;28;859;-52
2021/11/24 06:52:39;;;;;;;;;;;15.00;99.90;;;;;;5059828;28;925;-52
2021/11/24 06:55:07;;;;;;;;;;;15.00;99.90;;;;;;5055234;28;1382;-52
2021/11/24 06:57:34;;;;;;;;;;;15.00;99.90;;;;;;5061063;28;1910;-52
2021/11/24 07:00:00;;;;;;;;;;;15.00;99.90;;;;;;5077928;28;868;-52
2021/11/24 07:02:26;;;;;;;;;;;14.90;99.90;;;;;;5078019;28;824;-52
2021/11/24 07:04:52;;;;;;;;;;;14.80;99.90;;;;;;5065683;28;834;-52
2021/11/24 07:07:18;;;;;;;;;;;14.80;99.90;;;;;;5052135;28;995;-54
2021/11/24 07:09:44;;;;;;;;;;;14.80;99.90;;;;;;5076698;28;1138;-52
2021/11/24 07:12:10;;;;;;;;;;;14.80;99.90;;;;;;5077824;28;908;-53
2021/11/24 07:14:39;;;;;;;;;;;14.80;99.90;;;;;;5071788;28;942;-52
2021/11/24 07:17:06;;;;;;;;;;;14.70;99.90;;;;;;5063791;28;1961;-52
2021/11/24 07:19:32;;;;;;;;;;;14.80;99.90;;;;;;5026685;28;1442;-52
2021/11/24 07:21:58;;;;;;;;;;;14.70;99.90;;;;;;5024679;28;976;-53
2021/11/24 07:24:24;;;;;;;;;;;14.70;99.90;;;;;;5057802;28;943;-52
2021/11/24 07:26:51;;;;;;;;;;;14.70;99.90;;;;;;5040953;28;1077;-52
2021/11/24 07:29:17;;;;;;;;;;;14.60;99.90;;;;;;5058837;28;1052;-52
2021/11/24 07:31:43;;;;;;;;;;;14.60;99.90;;;;;;5055081;28;985;-53
2021/11/24 07:34:13;;;;;;;;;;;14.60;99.90;;;;;;5056681;28;1108;-52
2021/11/24 07:36:41;;;;;;;;;;;14.50;99.90;;;;;;5056070;28;1913;-52
2021/11/24 07:39:08;;;;;;;;;;;14.50;99.90;;;;;;5058607;28;1033;-52
2021/11/24 07:41:37;;;;;;;;;;;14.50;99.90;;;;;;5012322;28;1499;-52
2021/11/24 07:44:05;;;;;;;;;;;14.50;99.90;;;;;;5026073;28;1155;-52
2021/11/24 07:46:31;;;;;;;;;;;14.50;99.90;;;;;;5060247;28;1059;-53
2021/11/24 07:48:58;;;;;;;;;;;14.50;99.90;;;;;;5059991;28;1404;-53
2021/11/24 07:51:24;;;;;;;;;;;14.50;99.90;;;;;;5059209;28;1024;-52
2021/11/24 07:53:50;;;;;;;;;;;14.50;99.90;;;;;;5058518;28;1119;-52
2021/11/24 07:56:16;;;;;;;;;;;14.40;99.90;;;;;;5056457;28;1959;-53
2021/11/24 07:58:43;;;;;;;;;;;14.40;99.90;;;;;;5058308;28;860;-53
2021/11/24 08:01:11;;;;;;;;;;;14.40;99.90;;;;;;5054702;28;1055;-53
2021/11/24 08:03:39;;;;;;;;;;;14.40;99.90;;;;;;5075664;28;1076;-52
2021/11/24 08:06:05;;;;;;;;;;;14.40;99.90;;;;;;5066186;28;1615;-52
2021/11/24 08:08:31;;;;;;;;;;;14.50;99.90;;;;;;5062444;28;1779;-52
2021/11/24 08:10:58;;;;;;;;;;;14.50;99.90;;;;;;5055368;28;1616;-52
2021/11/24 08:13:24;;;;;;;;;;;14.50;99.90;;;;;;5063406;28;1640;-52
2021/11/24 08:15:50;;;;;;;;;;;14.70;99.90;;;;;;5058953;28;1223;-52
2021/11/24 08:18:16;;;;;;;;;;;14.90;99.90;;;;;;5057911;28;1910;-52
2021/11/24 08:20:44;;;;;;;;;;;15.00;99.90;;;;;;5065424;28;1378;-52
2021/11/24 08:23:10;;;;;;;;;;;15.20;99.90;;;;;;5069032;28;965;-52
2021/11/24 08:25:36;;;;;;;;;;;15.30;99.90;;;;;;5056925;28;914;-52
2021/11/24 08:28:03;;;;;;;;;;;15.40;99.90;;;;;;5056525;28;1286;-52
2021/11/24 08:30:29;;;;;;;;;;;15.50;99.90;;;;;;5073091;28;874;-52
2021/11/24 08:32:55;;;;;;;;;;;15.60;99.90;;;;;;5071733;28;1011;-52
2021/11/24 08:35:22;;;;;;;;;;;15.70;99.90;;;;;;5075976;28;828;-52
2021/11/24 08:37:49;;;;;;;;;;;15.70;99.90;;;;;;5062536;28;1910;-53
2021/11/24 08:40:17;;;;;;;;;;;15.70;99.90;;;;;;5057052;28;1115;-52
2021/11/24 08:42:43;;;;;;;;;;;15.80;99.90;;;;;;5055051;28;1052;-52
2021/11/24 08:45:10;;;;;;;;;;;15.80;99.90;;;;;;5061559;28;1927;-52
2021/11/24 08:47:38;;;;;;;;;;;15.80;99.90;;;;;;5056970;28;1170;-52
2021/11/24 08:50:05;;;;;;;;;;;15.70;99.90;;;;;;5054026;28;996;-52
2021/11/24 08:52:31;;;;;;;;;;;15.80;99.90;;;;;;5061049;28;1123;-52
2021/11/24 08:54:57;;;;;;;;;;;15.80;99.90;;;;;;5058719;28;1107;-52
2021/11/24 08:57:23;;;;;;;;;;;15.90;99.90;;;;;;5060316;28;1918;-52
2021/11/24 08:59:49;;;;;;;;;;;16.00;99.90;;;;;;5058851;28;1119;-52
2021/11/24 09:02:16;;;;;;;;;;;16.10;99.90;;;;;;5052074;28;1348;-54
2021/11/24 09:04:44;;;;;;;;;;;16.10;99.90;;;;;;5054968;28;1167;-53
2021/11/24 09:07:11;;;;;;;;;;;16.20;99.90;;;;;;5060269;28;1288;-54
2021/11/24 09:09:39;;;;;;;;;;;16.30;99.90;;;;;;5052962;28;1292;-54
2021/11/24 09:12:06;;;;;;;;;;;16.30;99.90;;;;;;5037588;28;980;-54
2021/11/24 09:14:32;;;;;;;;;;;16.30;99.90;;;;;;5073521;28;794;-53
2021/11/24 09:16:58;;;;;;;;;;;16.30;99.90;;;;;;5054572;28;1883;-52
2021/11/24 09:19:24;;;;;;;;;;;16.40;99.90;;;;;;5064688;28;1179;-54
2021/11/24 09:21:51;;;;;;;;;;;16.40;99.90;;;;;;5056768;28;974;-52
2021/11/24 09:24:25;;;;;;;;;;;16.60;99.90;;;;;;5064044;28;1264;-52
2021/11/24 09:27:00;;;;;;;;;;;16.60;99.90;;;;;;5058622;28;1025;-53
2021/11/24 09:29:27;;;;;;;;;;;16.70;99.90;;;;;;5064465;28;1036;-54
2021/11/24 09:31:54;;;;;;;;;;;16.80;99.90;;;;;;5074743;28;1109;-52
2021/11/24 09:34:20;;;;;;;;;;;16.90;99.90;;;;;;5074974;28;863;-52
2021/11/24 09:36:48;;;;;;;;;;;17.10;99.90;;;;;;5054153;28;1975;-52
2021/11/24 09:39:15;;;;;;;;;;;17.20;99.90;;;;;;5065266;28;1057;-52
2021/11/24 09:41:45;;;;;;;;;;;17.30;99.90;;;;;;5061073;28;1226;-56
2021/11/24 09:44:11;;;;;;;;;;;17.40;99.90;;;;;;5056433;28;1142;-53
2021/11/24 09:46:44;;;;;;;;;;;17.50;99.90;;;;;;5055379;28;1035;-52
2021/11/24 09:49:10;;;;;;;;;;;17.60;99.90;;;;;;5053945;28;1234;-52
2021/11/24 09:51:38;;;;;;;;;;;17.60;99.90;;;;;;5057427;28;1324;-52
2021/11/24 09:54:04;;;;;;;;;;;17.60;99.90;;;;;;5055517;28;1111;-52
2021/11/24 09:56:30;;;;;;;;;;;17.60;99.90;;;;;;5054859;28;1969;-52
2021/11/24 09:58:56;;;;;;;;;;;17.60;99.90;;;;;;5060869;28;1004;-52
2021/11/24 10:01:23;;;;;;;;;;;17.60;99.90;;;;;;5059378;28;1201;-52
2021/11/24 10:03:50;;;;;;;;;;;17.60;99.90;;;;;;5058159;28;1060;-52
2021/11/24 10:06:16;;;;;;;;;;;17.60;99.90;;;;;;5060738;28;1267;-53
2021/11/24 10:08:43;;;;;;;;;;;17.60;99.90;;;;;;5048777;28;1130;-52
2021/11/24 10:11:11;;;;;;;;;;;17.70;99.90;;;;;;5054778;28;1320;-53
2021/11/24 10:13:38;;;;;;;;;;;17.60;99.90;;;;;;5057338;28;1377;-52
2021/11/24 10:16:04;;;;;;;;;;;17.70;99.90;;;;;;5056384;28;777;-53
2021/11/24 10:18:35;;;;;;;;;;;17.70;99.90;;;;;;5060021;28;1973;-53
2021/11/24 10:21:11;;;;;;;;;;;17.70;99.90;;;;;;5055983;28;1371;-53
2021/11/24 10:23:38;;;;;;;;;;;17.60;99.90;;;;;;5039892;28;1023;-53
2021/11/24 10:26:18;;;;;;;;;;;17.60;99.90;;;;;;5074350;28;797;-53
2021/11/24 10:29:18;;;;;;;;;;;17.70;99.90;;;;;;5051128;28;776;-53
2021/11/24 10:32:04;;;;;;;;;;;17.70;99.90;;;;;;5017308;28;1373;-53
2021/11/24 10:34:32;;;;;;;;;;;17.80;99.90;;;;;;5052220;28;1260;-52
2021/11/24 10:37:03;;;;;;;;;;;17.80;99.90;;;;;;5051345;28;1898;-52
2021/11/24 10:39:31;;;;;;;;;;;17.80;99.90;;;;;;5051348;28;1023;-52
2021/11/24 10:42:04;;;;;;;;;;;17.80;99.90;;;;;;5054670;28;930;-54
2021/11/24 10:44:30;;;;;;;;;;;17.80;99.90;;;;;;5070703;28;1094;-52
2021/11/24 10:46:57;;;;;;;;;;;17.80;99.90;;;;;;5061359;28;1235;-52
2021/11/24 10:49:30;;;;;;;;;;;17.80;99.90;;;;;;5038034;28;1209;-52
2021/11/24 10:51:56;;;;;;;;;;;17.70;99.90;;;;;;5055978;28;946;-52
2021/11/24 10:54:25;;;;;;;;;;;17.60;99.90;;;;;;5059579;28;835;-52
2021/11/24 10:57:10;;;;;;;;;;;17.50;99.90;;;;;;5058601;28;1976;-52
2021/11/24 10:59:40;;;;;;;;;;;17.40;99.90;;;;;;5059532;28;826;-52
2021/11/24 11:02:28;;;;;;;;;;;17.20;99.90;;;;;;5059080;28;1030;-52
2021/11/24 11:04:54;;;;;;;;;;;17.20;99.90;;;;;;5055325;28;861;-52
2021/11/24 11:07:20;;;;;;;;;;;17.10;99.90;;;;;;5041517;28;1003;-52
2021/11/24 11:09:47;;;;;;;;;;;17.00;99.90;;;;;;5059177;28;833;-52
2021/11/24 11:12:15;;;;;;;;;;;16.90;99.90;;;;;;5041551;28;1426;-52
2021/11/24 11:14:41;;;;;;;;;;;16.90;99.90;;;;;;5076688;28;861;-52
2021/11/24 11:17:07;;;;;;;;;;;16.80;99.90;;;;;;5063603;28;1902;-52
2021/11/24 11:19:39;;;;;;;;;;;16.80;99.90;;;;;;5066712;28;1237;-52
2021/11/24 11:22:06;;;;;;;;;;;16.80;99.90;;;;;;5059201;28;781;-52
2021/11/24 11:24:32;;;;;;;;;;;16.80;99.90;;;;;;5058913;28;790;-52
2021/11/24 11:26:58;;;;;;;;;;;16.90;99.90;;;;;;5058824;28;751;-52
2021/11/24 11:29:27;;;;;;;;;;;16.90;99.90;;;;;;5060355;28;769;-52
2021/11/24 11:31:54;;;;;;;;;;;17.00;99.90;;;;;;5060097;28;908;-52
2021/11/24 11:34:22;;;;;;;;;;;17.00;99.90;;;;;;5060692;28;785;-52
2021/11/24 11:36:49;;;;;;;;;;;17.10;99.90;;;;;;5059783;28;1922;-52
2021/11/24 11:39:15;;;;;;;;;;;17.10;99.90;;;;;;5061456;28;883;-52
2021/11/24 11:41:44;;;;;;;;;;;17.20;99.90;;;;;;5025960;28;1073;-52
2021/11/24 11:44:15;;;;;;;;;;;17.20;99.90;;;;;;5062154;28;1459;-52
2021/11/24 11:46:45;;;;;;;;;;;17.30;99.90;;;;;;5058636;28;1167;-52
2021/11/24 11:49:14;;;;;;;;;;;17.30;99.90;;;;;;5024081;28;1027;-52
2021/11/24 11:51:41;;;;;;;;;;;17.30;99.90;;;;;;5058493;28;737;-52
2021/11/24 11:54:08;;;;;;;;;;;17.30;99.90;;;;;;5057968;28;944;-52
2021/11/24 11:56:37;;;;;;;;;;;17.30;99.90;;;;;;5057698;28;1901;-52
2021/11/24 11:59:23;;;;;;;;;;;17.30;99.90;;;;;;5040410;28;933;-52
2021/11/24 12:02:11;;;;;;;;;;;17.30;99.90;;;;;;5058545;28;877;-52
2021/11/24 12:04:37;;;;;;;;;;;17.30;99.90;;;;;;5056616;28;1397;-52
2021/11/24 12:07:05;;;;;;;;;;;17.30;99.90;;;;;;5059191;28;934;-52
2021/11/24 12:09:38;;;;;;;;;;;17.20;99.90;;;;;;5065507;28;1329;-52
2021/11/24 12:12:08;;;;;;;;;;;17.20;99.90;;;;;;5058303;28;836;-52
2021/11/24 12:14:40;;;;;;;;;;;17.20;99.90;;;;;;5075773;28;864;-52
2021/11/24 12:17:25;;;;;;;;;;;17.20;99.90;;;;;;5072216;28;1902;-52
2021/11/24 12:19:52;;;;;;;;;;;17.10;99.90;;;;;;5061715;28;1230;-54
2021/11/24 12:22:37;;;;;;;;;;;17.10;99.90;;;;;;5008755;28;1027;-54
2021/11/24 12:25:03;;;;;;;;;;;17.10;99.90;;;;;;5059513;28;1056;-53
2021/11/24 12:27:48;;;;;;;;;;;17.10;99.90;;;;;;5057699;28;877;-53
2021/11/24 12:30:14;;;;;;;;;;;17.10;99.90;;;;;;5057284;28;1441;-53
2021/11/24 12:32:40;;;;;;;;;;;17.00;99.90;;;;;;5056702;28;877;-53
2021/11/24 12:35:15;;;;;;;;;;;17.00;99.90;;;;;;5056749;28;999;-52
2021/11/24 12:37:41;;;;;;;;;;;16.90;99.90;;;;;;5057849;28;1972;-53
2021/11/24 12:40:07;;;;;;;;;;;16.90;99.90;;;;;;5057574;28;801;-53
2021/11/24 12:42:34;;;;;;;;;;;16.90;99.90;;;;;;5057336;28;993;-52
2021/11/24 12:45:00;;;;;;;;;;;16.90;99.90;;;;;;5073917;28;1034;-53
2021/11/24 12:47:26;;;;;;;;;;;16.90;99.90;;;;;;5075749;28;808;-53
2021/11/24 12:50:03;;;;;;;;;;;16.90;99.90;;;;;;5075707;28;896;-53
2021/11/24 12:52:29;;;;;;;;;;;16.80;99.90;;;;;;5066409;28;1371;-53
2021/11/24 12:55:01;;;;;;;;;;;16.70;99.90;;;;;;5067927;28;754;-53
2021/11/24 12:57:29;;;;;;;;;;;16.70;99.90;;;;;;5075346;28;1892;-53
2021/11/24 12:59:55;;;;;;;;;;;16.70;99.90;;;;;;5075499;28;927;-53
2021/11/24 13:02:22;;;;;;;;;;;16.70;99.90;;;;;;5075297;28;860;-52
2021/11/24 13:04:48;;;;;;;;;;;16.70;99.90;;;;;;5059908;28;1482;-52
2021/11/24 13:07:21;;;;;;;;;;;16.70;99.90;;;;;;5051081;28;1207;-52
2021/11/24 13:09:48;;;;;;;;;;;16.70;99.90;;;;;;5075213;28;900;-52
2021/11/24 13:12:19;;;;;;;;;;;16.80;99.90;;;;;;5037378;28;877;-52
2021/11/24 13:14:49;;;;;;;;;;;16.80;99.90;;;;;;5055426;28;833;-52
2021/11/24 13:17:22;;;;;;;;;;;16.80;99.90;;;;;;5057036;28;1910;-52
2021/11/24 13:19:54;;;;;;;;;;;16.90;99.90;;;;;;5065186;28;1227;-52
2021/11/24 13:22:39;;;;;;;;;;;16.90;99.90;;;;;;5055280;28;860;-51
2021/11/24 13:25:12;;;;;;;;;;;16.90;99.90;;;;;;5028082;28;960;-52
2021/11/24 13:27:41;;;;;;;;;;;17.00;99.90;;;;;;5065278;28;899;-52
2021/11/24 13:30:12;;;;;;;;;;;17.00;99.90;;;;;;5074363;28;1314;-52
2021/11/24 13:32:54;;;;;;;;;;;17.00;99.90;;;;;;5053486;28;996;-53
2021/11/24 13:35:21;;;;;;;;;;;17.10;99.90;;;;;;5056299;28;1037;-52
2021/11/24 13:37:47;;;;;;;;;;;17.10;99.90;;;;;;5056768;28;1979;-52
2021/11/24 13:40:13;;;;;;;;;;;17.10;99.90;;;;;;5063614;28;918;-53
2021/11/24 13:42:41;;;;;;;;;;;17.10;99.90;;;;;;5055425;28;1165;-52
2021/11/24 13:45:09;;;;;;;;;;;17.10;99.90;;;;;;5074754;28;1121;-52
2021/11/24 13:47:36;;;;;;;;;;;17.20;99.90;;;;;;5039628;28;1152;-52
2021/11/24 13:50:02;;;;;;;;;;;17.20;99.90;;;;;;5056433;28;838;-52
2021/11/24 13:52:36;;;;;;;;;;;17.20;99.90;;;;;;5056701;28;830;-52
2021/11/24 13:55:03;;;;;;;;;;;17.20;99.90;;;;;;5055959;28;881;-52
2021/11/24 13:57:30;;;;;;;;;;;17.20;99.90;;;;;;5063984;28;1914;-53
2021/11/24 13:59:58;;;;;;;;;;;17.20;99.90;;;;;;5072773;28;1037;-53
2021/11/24 14:02:26;;;;;;;;;;;17.20;99.90;;;;;;5055207;28;1238;-53
2021/11/24 14:04:57;;;;;;;;;;;17.30;99.90;;;;;;5038194;28;897;-53
2021/11/24 14:07:35;;;;;;;;;;;17.40;99.90;;;;;;5055666;28;1021;-52
2021/11/24 14:10:25;;;;;;;;;;;17.30;99.90;;;;;;5055347;28;857;-53
2021/11/24 14:12:51;;;;;;;;;;;17.20;99.90;;;;;;5058576;28;806;-52
2021/11/24 14:15:24;;;;;;;;;;;17.20;99.90;;;;;;5074870;28;907;-53
2021/11/24 14:17:57;;;;;;;;;;;17.10;99.90;;;;;;5052898;28;1963;-54
2021/11/24 14:20:23;;;;;;;;;;;17.10;99.90;;;;;;5056635;28;1354;-54
2021/11/24 14:22:49;;;;;;;;;;;17.00;99.90;;;;;;5071382;28;874;-52
2021/11/24 14:25:17;;;;;;;;;;;17.00;99.90;;;;;;5074356;28;899;-52
2021/11/24 14:27:45;;;;;;;;;;;17.00;99.90;;;;;;5076074;28;845;-52
2021/11/24 14:30:14;;;;;;;;;;;16.90;99.90;;;;;;5078255;28;822;-54
2021/11/24 14:32:42;;;;;;;;;;;16.90;99.90;;;;;;5060633;28;1064;-53
2021/11/24 14:35:10;;;;;;;;;;;16.90;99.90;;;;;;5060104;28;831;-52
2021/11/24 14:37:37;;;;;;;;;;;16.80;99.90;;;;;;5059826;28;1906;-53
2021/11/24 14:40:04;;;;;;;;;;;16.80;99.90;;;;;;5042526;28;783;-52
2021/11/24 14:42:30;;;;;;;;;;;16.80;99.90;;;;;;5059015;28;921;-52